Elberta, Michigan
Current Conditions -  °F | °C
As of 7:16 AM on Sunday 25 Jan 2015 (Local Time) from KFKS Reporting Station
Clear Clear  
Wind Chill:   Ceiling: Unl
Heat Index: 14°   Visibility: 10mi
Dew Point:   Wind: 10mph
Humidity: 65%   Direction: 60°ENE
Pressure: 29.92"   Gusts: 18mph
Location:  44.62°N, 86.23°W
Report Text: KFKS 251216Z AUTO 06009G16KT 030V100 10SM CLR M10/M15 A2992 RMK AO2 T11001154
Loading
Personal Weather Stations






























Interactive Weather Map New forecast layout! Learn more

10-Day Weather Forecast

Advertisements
Track Severe Weather on mobile